• Join FlightAware (Why Join?)
  • Login
  • US Flag 
10:50AM EST


 

Airport Tracker/Info


-or-


 

Live Flight TrackerFlight Track Log ✈ N789EX ✈ 19-Mar-2014 ✈ KBFI - KBFI

Flight Track Log - Related Links

Times and Time Zones

All times are in EDT time to prevent confusion due to time zone crossing. See the N789EX flight status page for this flight to view local times or setup timezone preferences in your user account.

Time Position Orientation Groundspeed Altitude Reporting Facility
EDT Latitude Longitude Course Direction KTS MPH feet Rate Location/Type
05:53PM 47.2991 -122.4480 269° West 233 268 6,900  Level FlightAware ADS-B
05:53PM 47.2988 -122.4720 269° West 235 270 7,000 1,320 Climbing FlightAware ADS-B
05:53PM 47.2987 -122.4970 270° West 235 270 7,600 3,060 Climbing FlightAware ADS-B
05:54PM 47.2988 -122.5210 271° West 236 272 8,600 3,540 Climbing FlightAware ADS-B
05:54PM 47.2990 -122.5500 270° West 248 285 9,500 2,880 Climbing FlightAware ADS-B
05:54PM 47.2995 -122.6060 271° West 276 318 11,000 2,100 Climbing FlightAware ADS-B
05:55PM 47.2989 -122.6760 269° West 318 366 11,800 1,380 Climbing FlightAware ADS-B
05:55PM 47.2989 -122.6766 269° West 321 369 11,800 2,220 Level FlightAware ADS-B (CYVR)
05:55PM 47.2969 -122.7490 268° West 354 407 13,000 2,340 Climbing FlightAware ADS-B
05:56PM 47.2950 -122.8260 267° West 376 433 14,200 2,040 Climbing FlightAware ADS-B
05:56PM 47.2911 -122.8650 257° West 377 434 14,600 1,440 Climbing FlightAware ADS-B
05:56PM 47.2865 -122.8880 252° West 375 432 14,800 420 Climbing FlightAware ADS-B
05:57PM 47.2681 -122.9590 248° West 374 430 14,900 60 Climbing FlightAware ADS-B
05:57PM 47.2511 -123.0210 248° West 378 435 14,900  Level FlightAware ADS-B
05:58PM 47.2311 -123.0950 249° West 379 436 14,900  Level FlightAware ADS-B
05:58PM 47.2123 -123.1670 249° West 372 428 14,900  Level FlightAware ADS-B
05:59PM 47.1967 -123.2258 249° West 375 432 14,900  Level FlightAware ADS-B (CYVR)
05:59PM 47.1935 -123.2380 249° West 375 432 14,900  Level FlightAware ADS-B
05:59PM 47.1778 -123.2977 249° West 376 433 14,900  Level FlightAware ADS-B (CYVR)
05:59PM 47.1747 -123.3100 249° West 375 432 14,900  Level FlightAware ADS-B
06:00PM 47.1611 -123.3607 249° West 374 430 14,900  Level FlightAware ADS-B (CYVR)
06:00PM 47.1553 -123.3820 249° West 374 430 14,900 -240 Level FlightAware ADS-B
06:00PM 47.1393 -123.4425 249° West 375 432 14,800 -240 Descending FlightAware ADS-B (CYVR)
06:00PM 47.1362 -123.4540 249° West 374 430 14,800  Level FlightAware ADS-B
06:01PM 47.1168 -123.5260 249° West 375 432 14,800  Level FlightAware ADS-B
06:01PM 47.1141 -123.5359 248° West 374 430 14,800  Level FlightAware ADS-B (CYVR)
06:01PM 47.1091 -123.5520 243° Southwest 375 432 14,800  Level FlightAware ADS-B
06:01PM 47.1024 -123.5690 238° Southwest 367 422 14,800  Level FlightAware ADS-B
06:01PM 47.0898 -123.5964 235° Southwest 349 402 14,800  Level FlightAware ADS-B (CYVR)
06:02PM 47.0745 -123.6270 234° Southwest 330 380 14,800  Level FlightAware ADS-B
06:02PM 47.0483 -123.6780 233° Southwest 295 339 14,800  Level FlightAware ADS-B
06:03PM 47.0246 -123.7230 232° Southwest 264 304 14,800  Level FlightAware ADS-B
06:03PM 47.0040 -123.7610 231° Southwest 227 261 14,800  Level FlightAware ADS-B
06:04PM 46.9859 -123.7930 230° Southwest 201 231 14,800  Level FlightAware ADS-B
06:04PM 46.9712 -123.8190 231° Southwest 188 216 14,800 -240 Level FlightAware ADS-B
06:05PM 46.9571 -123.8440 232° Southwest 187 215 14,600 -360 Descending FlightAware ADS-B
06:05PM 46.9435 -123.8700 231° Southwest 166 191 14,500 -240 Descending FlightAware ADS-B
06:05PM 46.9300 -123.8930 228° Southwest 137 158 14,400 -1,020 Descending FlightAware ADS-B
06:06PM 46.9217 -123.9070 230° Southwest 151 174 13,700 -2,880 Descending FlightAware ADS-B
06:06PM 46.9125 -123.9230 233° Southwest 198 228 12,600 -1,800 Descending FlightAware ADS-B
06:06PM 46.9002 -123.9490 236° Southwest 211 243 12,500 60 Descending FlightAware ADS-B
06:07PM 46.8836 -123.9850 236° Southwest 201 231 12,700 1,020 Climbing FlightAware ADS-B
06:07PM 46.8660 -124.0200 233° Southwest 216 249 13,600 1,920 Climbing FlightAware ADS-B
06:08PM 46.8474 -124.0550 231° Southwest 220 253 14,700 2,160 Climbing FlightAware ADS-B
06:08PM 46.8260 -124.0890 226° Southwest 229 264 15,800 1,560 Climbing FlightAware ADS-B
06:09PM 46.8042 -124.1220 226° Southwest 218 251 16,300 480 Climbing FlightAware ADS-B
06:10PM 46.7839 -124.1520 225° Southwest 202 232 16,300 -540 Level FlightAware ADS-B
06:10PM 46.7643 -124.1810 225° Southwest 198 228 15,800 -720 Descending FlightAware ADS-B
06:10PM 46.7524 -124.1980 223° Southwest 169 194 15,700 -900 Descending FlightAware ADS-B
06:11PM 46.7417 -124.2120 222° Southwest 147 169 15,200 -2,760 Descending FlightAware ADS-B
06:11PM 46.7348 -124.2220 226° Southwest 166 191 14,200 -2,880 Descending FlightAware ADS-B
06:11PM 46.7163 -124.2540 232° Southwest 216 249 13,100 -1,080 Descending FlightAware ADS-B
06:12PM 46.7040 -124.2780 238° Southwest 214 246 13,300 840 Climbing FlightAware ADS-B
06:12PM 46.7016 -124.2870 249° West 210 242 13,500 1,980 Climbing FlightAware ADS-B
06:12PM 46.7007 -124.2910 253° West 210 242 13,600 1,620 Climbing FlightAware ADS-B
06:12PM 46.6979 -124.3120 261° West 216 249 14,000 1,560 Climbing FlightAware ADS-B
06:12PM 46.6975 -124.3170 265° West 217 250 14,100 1,200 Climbing FlightAware ADS-B
06:12PM 46.6977 -124.3260 276° West 218 251 14,200 1,500 Climbing FlightAware ADS-B
06:12PM 46.6995 -124.3350 290° West 220 253 14,400 1,800 Climbing FlightAware ADS-B
06:12PM 46.7010 -124.3390 296° West 220 253 14,500 2,640 Climbing FlightAware ADS-B
06:13PM 46.7039 -124.3460 303° West 219 252 14,800 3,180 Climbing FlightAware ADS-B
06:13PM 46.7100 -124.3580 308° West 212 244 15,300 2,280 Climbing FlightAware ADS-B
06:13PM 46.7260 -124.3850 312° West 216 249 16,200 1,800 Climbing FlightAware ADS-B
06:13PM 46.7309 -124.3930 310° West 216 249 16,300 420 Climbing FlightAware ADS-B
06:13PM 46.7347 -124.4010 301° West 207 238 16,300  Level FlightAware ADS-B
06:13PM 46.7365 -124.4080 290° West 199 229 16,300  Level FlightAware ADS-B
06:14PM 46.7372 -124.4130 280° West 194 223 16,300  Level FlightAware ADS-B
06:14PM 46.7372 -124.4180 268° West 191 220 16,300  Level FlightAware ADS-B
06:14PM 46.7366 -124.4220 256° West 190 219 16,300  Level FlightAware ADS-B
06:14PM 46.7352 -124.4270 247° West 191 220 16,300  Level FlightAware ADS-B
06:14PM 46.7332 -124.4310 234° Southwest 194 223 16,300  Level FlightAware ADS-B
06:14PM 46.7306 -124.4350 223° Southwest 201 231 16,300  Level FlightAware ADS-B
06:14PM 46.7275 -124.4380 211° Southwest 210 242 16,300  Level FlightAware ADS-B
06:14PM 46.7239 -124.4400 200° South 222 255 16,300  Level FlightAware ADS-B
06:14PM 46.7179 -124.4410 187° South 239 275 16,300  Level FlightAware ADS-B
06:14PM 46.7120 -124.4410 176° South 258 297 16,300  Level FlightAware ADS-B
06:14PM 46.7071 -124.4390 167° South 270 311 16,300  Level FlightAware ADS-B
06:14PM 46.7011 -124.4360 156° South 285 328 16,300  Level FlightAware ADS-B
06:14PM 46.6949 -124.4300 144° Southeast 300 345 16,300  Level FlightAware ADS-B
06:15PM 46.6899 -124.4230 134° Southeast 310 357 16,300  Level FlightAware ADS-B
06:15PM 46.6845 -124.4130 125° Southeast 320 368 16,300  Level FlightAware ADS-B
06:15PM 46.6755 -124.3880 115° Southeast 323 372 16,300  Level FlightAware ADS-B
06:15PM 46.6572 -124.3290 114° Southeast 319 367 16,300  Level FlightAware ADS-B
06:16PM 46.6422 -124.2810 114° Southeast 289 333 16,300  Level FlightAware ADS-B
06:16PM 46.6428 -124.2826 114° Southeast 317 365 16,300 -2,940 Level FlightAware ADS-B
06:16PM 46.6208 -124.2130 116° Southeast 318 366 14,300 -1,800 Descending FlightAware ADS-B
06:17PM 46.6002 -124.1520 116° Southeast 333 383 14,400 120 Climbing FlightAware ADS-B
06:17PM 46.5881 -124.1160 115° Southeast 337 388 14,400  Level FlightAware ADS-B
06:17PM 46.5861 -124.1090 112° Southeast 337 388 14,400 660 Level FlightAware ADS-B
06:17PM 46.5837 -124.0970 105° East 334 384 14,500 1,320 Climbing FlightAware ADS-B
06:17PM 46.5823 -124.0870 99° East 336 387 14,600 1,200 Climbing FlightAware ADS-B
06:18PM 46.5816 -124.0740 92° East 337 388 14,700 1,800 Climbing FlightAware ADS-B
06:18PM 46.5818 -124.0650 87° East 337 388 14,900 1,980 Climbing FlightAware ADS-B
06:18PM 46.5826 -124.0550 82° East 333 383 15,000 1,980 Climbing FlightAware ADS-B
06:18PM 46.5852 -124.0400 73° East 328 377 15,300 2,160 Climbing FlightAware ADS-B
06:18PM 46.5877 -124.0310 67° East 324 373 15,400 1,500 Climbing FlightAware ADS-B
06:18PM 46.5901 -124.0240 62° Northeast 321 369 15,500 1,320 Climbing FlightAware ADS-B
06:18PM 46.5939 -124.0160 55° Northeast 316 364 15,600 1,080 Climbing FlightAware ADS-B
06:18PM 46.6002 -124.0050 45° Northeast 309 356 15,700 1,320 Climbing FlightAware ADS-B
06:18PM 46.6033 -124.0010 40° Northeast 304 350 15,800 1,680 Climbing FlightAware ADS-B
06:18PM 46.6072 -123.9970 34° Northeast 298 343 15,900 1,320 Climbing FlightAware ADS-B
06:18PM 46.6138 -123.9930 23° Northeast 284 327 16,000 1,620 Climbing FlightAware ADS-B
06:18PM 46.6209 -123.9900 North 267 307 16,200 1,320 Climbing FlightAware ADS-B
06:18PM 46.6250 -123.9900 359° North 257 296 16,200 840 Level FlightAware ADS-B
06:19PM 46.6296 -123.9910 351° North 250 288 16,300 720 Climbing FlightAware ADS-B
06:19PM 46.6341 -123.9930 344° North 247 284 16,300  Level FlightAware ADS-B
06:19PM 46.6374 -123.9940 339° North 243 280 16,300  Level FlightAware ADS-B
06:19PM 46.6414 -123.9970 331° Northwest 237 273 16,300  Level FlightAware ADS-B
06:19PM 46.6441 -124.0000 325° Northwest 231 266 16,300  Level FlightAware ADS-B
06:19PM 46.6469 -124.0040 318° Northwest 222 255 16,300  Level FlightAware ADS-B
06:19PM 46.6491 -124.0070 312° West 216 249 16,300  Level FlightAware ADS-B
06:19PM 46.6516 -124.0120 304° West 209 241 16,300  Level FlightAware ADS-B
06:19PM 46.6532 -124.0160 296° West 203 234 16,300  Level FlightAware ADS-B
06:19PM 46.6549 -124.0220 291° West 196 226 16,300 120 Level FlightAware ADS-B
06:20PM 46.6629 -124.0580 287° West 175 201 16,400 60 Climbing FlightAware ADS-B
06:20PM 46.6688 -124.0880 285° West 164 189 16,400 -240 Level FlightAware ADS-B
06:21PM 46.6749 -124.1240 283° West 164 189 16,200 -720 Descending FlightAware ADS-B
06:21PM 46.6775 -124.1418 282° West 163 188 15,800 -1,020 Descending FlightAware ADS-B
06:21PM 46.6798 -124.1570 283° West 158 182 15,700 -180 Descending FlightAware ADS-B
06:22PM 46.6841 -124.1830 284° West 109 125 15,700 -1,020 Level FlightAware ADS-B
06:22PM 46.6854 -124.1920 282° West 118 136 15,000 -3,120 Descending FlightAware ADS-B
06:22PM 46.6905 -124.2260 282° West 194 223 13,500 -1,260 Descending FlightAware ADS-B
06:23PM 46.6961 -124.2680 280° West 204 235 13,700 840 Climbing FlightAware ADS-B
06:23PM 46.7005 -124.3100 277° West 209 241 14,400 1,740 Climbing FlightAware ADS-B
06:24PM 46.7034 -124.3510 276° West 198 228 15,500 1,920 Climbing FlightAware ADS-B
06:24PM 46.7063 -124.3850 278° West 201 231 16,200 1,500 Climbing FlightAware ADS-B
06:24PM 46.7079 -124.3950 287° West 201 231 16,300 480 Climbing FlightAware ADS-B
06:25PM 46.7099 -124.4000 299° West 204 235 16,300  Level FlightAware ADS-B
06:25PM 46.7128 -124.4060 312° West 211 243 16,300  Level FlightAware ADS-B
06:25PM 46.7159 -124.4090 320° Northwest 217 250 16,300  Level FlightAware ADS-B
06:25PM 46.7194 -124.4120 331° Northwest 226 260 16,300  Level FlightAware ADS-B
06:25PM 46.7225 -124.4140 338° Northwest 234 269 16,300  Level FlightAware ADS-B
06:25PM 46.7260 -124.4150 348° North 242 278 16,300  Level FlightAware ADS-B
06:25PM 46.7317 -124.4150 North 253 291 16,300  Level FlightAware ADS-B
06:25PM 46.7377 -124.4140 12° North 263 303 16,300  Level FlightAware ADS-B
06:25PM 46.7423 -124.4110 21° North 271 312 16,300  Level FlightAware ADS-B
06:25PM 46.7462 -124.4090 30° Northeast 279 321 16,300  Level FlightAware ADS-B
06:25PM 46.7507 -124.4040 38° Northeast 287 330 16,300  Level FlightAware ADS-B
06:25PM 46.7555 -124.3970 49° Northeast 297 342 16,300  Level FlightAware ADS-B
06:25PM 46.7587 -124.3900 57° Northeast 305 351 16,300  Level FlightAware ADS-B
06:25PM 46.7622 -124.3800 66° East 314 361 16,300  Level FlightAware ADS-B
06:26PM 46.7638 -124.3730 74° East 321 369 16,300  Level FlightAware ADS-B
06:26PM 46.7651 -124.3600 84° East 328 377 16,300  Level FlightAware ADS-B
06:26PM 46.7650 -124.3490 93° East 332 382 16,300  Level FlightAware ADS-B
06:26PM 46.7633 -124.3360 103° East 331 381 16,300  Level FlightAware ADS-B
06:26PM 46.7597 -124.3210 112° Southeast 333 383 16,300  Level FlightAware ADS-B
06:26PM 46.7404 -124.2600 115° Southeast 327 376 16,300 -540 Level FlightAware ADS-B
06:27PM 46.7206 -124.2010 116° Southeast 313 360 15,800 -840 Descending FlightAware ADS-B
06:27PM 46.7075 -124.1613 115° Southeast 276 318 15,600 -1,020 Descending FlightAware ADS-B
06:27PM 46.7032 -124.1480 115° Southeast 265 305 15,300 -3,240 Descending FlightAware ADS-B
06:28PM 46.6852 -124.0940 116° Southeast 322 371 13,500 -1,920 Descending FlightAware ADS-B
06:28PM 46.6664 -124.0400 118° Southeast 321 369 13,500 120 Level FlightAware ADS-B
06:29PM 46.6571 -124.0160 122° Southeast 321 369 13,600 600 Climbing FlightAware ADS-B
06:29PM 46.6515 -124.0060 130° Southeast 317 365 13,700 960 Climbing FlightAware ADS-B
06:29PM 46.6457 -123.9980 140° Southeast 310 357 13,800 540 Climbing FlightAware ADS-B
06:29PM 46.6385 -123.9920 151° Southeast 303 349 13,800  Level FlightAware ADS-B
06:29PM 46.6331 -123.9890 159° South 297 342 13,800 660 Level FlightAware ADS-B
06:29PM 46.6266 -123.9870 170° South 288 331 13,900 480 Climbing FlightAware ADS-B
06:29PM 46.6186 -123.9870 182° South 276 318 13,900 420 Level FlightAware ADS-B
06:29PM 46.6112 -123.9890 196° South 264 304 14,000 660 Climbing FlightAware ADS-B
06:29PM 46.6076 -123.9920 205° Southwest 256 295 14,000 720 Level FlightAware ADS-B
06:29PM 46.6030 -123.9960 217° Southwest 246 283 14,100 1,320 Climbing FlightAware ADS-B
06:29PM 46.5998 -124.0010 227° Southwest 238 274 14,200 660 Climbing FlightAware ADS-B
06:30PM 46.5970 -124.0070 237° Southwest 232 267 14,200 720 Level FlightAware ADS-B
06:30PM 46.5954 -124.0120 247° West 226 260 14,300 1,680 Climbing FlightAware ADS-B
06:30PM 46.5946 -124.0170 257° West 222 255 14,400 840 Climbing FlightAware ADS-B
06:30PM 46.5941 -124.0220 262° West 220 253 14,400 1,620 Level FlightAware ADS-B
06:30PM 46.5943 -124.0660 272° West 212 244 15,300 1,500 Climbing FlightAware ADS-B
06:31PM 46.5948 -124.0849 272° West 212 244 15,800 1,320 Climbing FlightAware ADS-B
06:31PM 46.5954 -124.1100 272° West 213 245 16,000 780 Climbing FlightAware ADS-B
06:31PM 46.5966 -124.1530 272° West 198 228 16,300 540 Climbing FlightAware ADS-B
06:31PM 46.5964 -124.1462 272° West 198 228 16,300  Level FlightAware ADS-B
06:32PM 46.5974 -124.1930 271° West 168 193 16,300  Level FlightAware ADS-B
06:32PM 46.5978 -124.2174 272° West 169 194 16,300 -1,020 Level FlightAware ADS-B
06:33PM 46.5987 -124.2530 273° West 174 200 15,400 -480 Descending FlightAware ADS-B
06:33PM 46.6002 -124.2980 271° West 89 102 15,700 -1,500 Climbing FlightAware ADS-B
06:34PM 46.6026 -124.3380 276° West 194 223 13,400 -2,280 Descending FlightAware ADS-B
06:34PM 46.6049 -124.3700 278° West 198 228 13,500 600 Climbing FlightAware ADS-B
06:35PM 46.6083 -124.3880 289° West 203 234 13,800 1,500 Climbing FlightAware ADS-B
06:35PM 46.6190 -124.4270 293° West 206 237 14,600 1,740 Climbing FlightAware ADS-B
06:36PM 46.6307 -124.4660 294° West 203 234 15,600 1,620 Climbing FlightAware ADS-B
06:36PM 46.6431 -124.5040 296° West 201 231 16,300 1,080 Climbing FlightAware ADS-B
06:36PM 46.6460 -124.5120 300° West 196 226 16,300  Level FlightAware ADS-B
06:36PM 46.6479 -124.5160 305° West 195 224 16,300  Level FlightAware ADS-B
06:36PM 46.6510 -124.5210 317° Northwest 197 227 16,300  Level FlightAware ADS-B
06:37PM 46.6558 -124.5250 333° Northwest 203 234 16,300  Level FlightAware ADS-B
06:37PM 46.6603 -124.5270 347° North 212 244 16,300  Level FlightAware ADS-B
06:37PM 46.6643 -124.5270 358° North 220 253 16,300  Level FlightAware ADS-B
06:37PM 46.6681 -124.5260 North 228 262 16,300  Level FlightAware ADS-B
06:37PM 46.6724 -124.5250 14° North 238 274 16,300  Level FlightAware ADS-B
06:37PM 46.6852 -124.5170 24° Northeast 253 291 16,300  Level FlightAware ADS-B
06:37PM 46.7061 -124.5030 26° Northeast 254 292 16,300  Level FlightAware ADS-B
06:38PM 46.7147 -124.4970 28° Northeast 255 293 16,300 -840 Level FlightAware ADS-B
06:38PM 46.7218 -124.4900 38° Northeast 268 308 16,100 -1,440 Descending FlightAware ADS-B
06:38PM 46.7271 -124.4820 47° Northeast 281 323 16,000 -1,200 Descending FlightAware ADS-B
06:38PM 46.7298 -124.4770 56° Northeast 290 334 15,900 -1,500 Descending FlightAware ADS-B
06:38PM 46.7327 -124.4680 65° Northeast 300 345 15,800 -1,500 Descending FlightAware ADS-B
06:38PM 46.7344 -124.4620 71° East 305 351 15,700 -1,200 Descending FlightAware ADS-B
06:38PM 46.7358 -124.4500 82° East 311 358 15,600 -1,140 Descending FlightAware ADS-B
06:38PM 46.7357 -124.4390 92° East 313 360 15,500 -600 Descending FlightAware ADS-B
06:38PM 46.7343 -124.4290 102° East 310 357 15,500  Level FlightAware ADS-B
06:38PM 46.7323 -124.4210 112° Southeast 302 348 15,500  Level FlightAware ADS-B
06:38PM 46.7297 -124.4140 120° Southeast 293 337 15,500 -600 Level FlightAware ADS-B
06:38PM 46.7249 -124.4050 129° Southeast 282 325 15,400 -1,020 Descending FlightAware ADS-B
06:39PM 46.7192 -124.3980 143° Southeast 265 305 15,300 -1,680 Descending FlightAware ADS-B
06:39PM 46.7142 -124.3940 154° Southeast 248 285 15,100 -3,000 Descending FlightAware ADS-B
06:39PM 46.7071 -124.3910 167° South 224 258 14,700 -3,840 Descending FlightAware ADS-B
06:39PM 46.7026 -124.3910 177° South 204 235 14,400 -5,340 Descending FlightAware ADS-B
06:39PM 46.6979 -124.3910 188° South 202 232 13,900 -7,200 Descending FlightAware ADS-B
06:39PM 46.6932 -124.3930 197° South 219 252 13,200 -5,640 Descending FlightAware ADS-B
06:39PM 46.6836 -124.3990 202° Southwest 254 292 12,500 -960 Descending FlightAware ADS-B
06:40PM 46.6457 -124.4230 204° Southwest 244 281 12,500 240 Level FlightAware ADS-B
06:40PM 46.6113 -124.4360 178° South 262 302 12,800 780 Climbing FlightAware ADS-B
06:40PM 46.6039 -124.4340 166° South 273 314 13,000 2,400 Climbing FlightAware ADS-B
06:40PM 46.5926 -124.4250 147° Southeast 288 331 13,400 2,100 Climbing FlightAware ADS-B
06:41PM 46.5878 -124.4180 136° Southeast 301 346 13,500 1,620 Climbing FlightAware ADS-B
06:41PM 46.5827 -124.4080 124° Southeast 315 362 13,700 1,800 Climbing FlightAware ADS-B
06:41PM 46.5784 -124.3940 109° East 327 376 13,900 1,860 Climbing FlightAware ADS-B
06:41PM 46.5761 -124.3750 94° East 333 383 14,200 1,980 Climbing FlightAware ADS-B
06:41PM 46.5769 -124.3560 84° East 336 387 14,500 2,460 Climbing FlightAware ADS-B
06:42PM 46.5856 -124.2800 80° East 352 405 15,900 1,680 Climbing FlightAware ADS-B
06:42PM 46.5942 -124.2130 80° East 325 374 16,300 480 Climbing FlightAware ADS-B
06:43PM 46.6023 -124.1510 79° East 313 360 16,400 120 Climbing FlightAware ADS-B
06:43PM 46.6063 -124.1224 78° East 312 359 16,400 -240 Level FlightAware ADS-B
06:43PM 46.6113 -124.0880 78° East 313 360 16,300 -1,140 Descending FlightAware ADS-B
06:43PM 46.6178 -124.0440 77° East 312 359 15,800 -1,320 Descending FlightAware ADS-B
06:44PM 46.6202 -124.0310 73° East 309 356 15,700 -1,500 Descending FlightAware ADS-B
06:44PM 46.6232 -124.0210 65° Northeast 303 349 15,500 -1,800 Descending FlightAware ADS-B
06:44PM 46.6269 -124.0120 55° Northeast 292 336 15,400 -1,200 Descending FlightAware ADS-B
06:44PM 46.6312 -124.0060 44° Northeast 277 319 15,300 -1,200 Descending FlightAware ADS-B
06:44PM 46.6359 -124.0010 33° Northeast 257 296 15,200 -720 Descending FlightAware ADS-B
06:44PM 46.6400 -123.9980 24° Northeast 239 275 15,200  Level FlightAware ADS-B
06:44PM 46.6447 -123.9960 14° North 219 252 15,200  Level FlightAware ADS-B
06:44PM 46.6494 -123.9960 North 195 224 15,200  Level FlightAware ADS-B
06:44PM 46.6519 -123.9970 350° North 177 204 15,200  Level FlightAware ADS-B
06:44PM 46.6541 -123.9980 341° North 165 190 15,200 -900 Level FlightAware ADS-B
06:44PM 46.6564 -124.0000 326° Northwest 149 171 15,100 -1,740 Descending FlightAware ADS-B
06:44PM 46.6579 -124.0020 314° West 135 155 15,000 -2,280 Descending FlightAware ADS-B
06:44PM 46.6592 -124.0050 294° West 115 132 14,800 -3,000 Descending FlightAware ADS-B
06:45PM 46.6595 -124.0080 281° West 114 131 14,600 -5,160 Descending FlightAware ADS-B
06:45PM 46.6594 -124.0110 265° West 129 148 14,200 -5,100 Descending FlightAware ADS-B
06:45PM 46.6563 -124.0300 257° West 194 223 12,900 -1,800 Descending FlightAware ADS-B
06:45PM 46.6501 -124.0690 257° West 202 232 12,800 480 Descending FlightAware ADS-B
06:46PM 46.6416 -124.1220 258° West 210 242 13,500 1,500 Climbing FlightAware ADS-B
06:46PM 46.6352 -124.1580 253° West 208 239 14,500 2,280 Climbing FlightAware ADS-B
06:47PM 46.6316 -124.1740 252° West 207 238 15,000 2,280 Climbing FlightAware ADS-B
06:47PM 46.6225 -124.2140 252° West 204 235 16,100 1,020 Climbing FlightAware ADS-B
06:48PM 46.6107 -124.2690 253° West 205 236 16,300 120 Climbing FlightAware ADS-B
06:48PM 46.6031 -124.3050 253° West 182 209 16,300  Level FlightAware ADS-B
06:49PM 46.5972 -124.3370 259° West 179 206 16,300 -240 Level FlightAware ADS-B
06:49PM 46.5970 -124.3400 264° West 175 201 16,200 -2,280 Descending FlightAware ADS-B
06:49PM 46.5972 -124.3460 275° West 173 199 16,000 -3,000 Descending FlightAware ADS-B
06:49PM 46.5981 -124.3500 288° West 174 200 15,800 -3,000 Descending FlightAware ADS-B
06:49PM 46.5996 -124.3540 302° West 178 205 15,600 -2,280 Descending FlightAware ADS-B
06:49PM 46.6020 -124.3570 317° Northwest 181 208 15,500 -1,200 Descending FlightAware ADS-B
06:49PM 46.6064 -124.3610 337° Northwest 184 212 15,400 -720 Descending FlightAware ADS-B
06:49PM 46.6090 -124.3610 351° North 185 213 15,400 -900 Level FlightAware ADS-B
06:49PM 46.6125 -124.3610 North 187 215 15,300 -900 Descending FlightAware ADS-B
06:49PM 46.6152 -124.3600 13° North 192 221 15,300 -1,500 Level FlightAware ADS-B
06:50PM 46.6195 -124.3580 25° Northeast 200 230 15,100 -3,600 Descending FlightAware ADS-B
06:50PM 46.6234 -124.3540 37° Northeast 211 243 14,700 -4,200 Descending FlightAware ADS-B
06:50PM 46.6269 -124.3490 46° Northeast 222 255 14,400 -3,960 Descending FlightAware ADS-B
06:50PM 46.6519 -124.3020 52° Northeast 319 367 12,400 -2,040 Descending FlightAware ADS-B
06:51PM 46.6783 -124.2520 52° Northeast 311 358 12,400 660 Level FlightAware ADS-B
06:51PM 46.7042 -124.2020 54° Northeast 303 349 13,100 1,560 Climbing FlightAware ADS-B
06:52PM 46.7224 -124.1660 54° Northeast 316 364 13,800 2,340 Climbing FlightAware ADS-B
06:52PM 46.7362 -124.1370 56° Northeast 322 371 14,600 2,700 Climbing FlightAware ADS-B
06:52PM 46.7477 -124.1110 59° Northeast 328 377 15,200 2,400 Climbing FlightAware ADS-B
06:52PM 46.7519 -124.0990 63° Northeast 335 386 15,400 2,160 Climbing FlightAware ADS-B
06:52PM 46.7553 -124.0870 70° East 344 396 15,600 2,400 Climbing FlightAware ADS-B
06:52PM 46.7568 -124.0790 76° East 350 403 15,800 2,700 Climbing FlightAware ADS-B
06:52PM 46.7581 -124.0610 87° East 359 413 16,100 1,680 Climbing FlightAware ADS-B
06:53PM 46.7572 -124.0450 98° East 365 420 16,200 780 Climbing FlightAware ADS-B
06:53PM 46.7531 -124.0250 111° Southeast 363 418 16,300 360 Climbing FlightAware ADS-B
06:53PM 46.7478 -124.0110 122° Southeast 358 412 16,300  Level FlightAware ADS-B
06:53PM 46.7391 -123.9970 136° Southeast 347 399 16,300  Level FlightAware ADS-B
06:53PM 46.7245 -123.9820 147° Southeast 330 380 16,300  Level FlightAware ADS-B
06:53PM 46.7100 -123.9694 150° Southeast 313 360 16,300  Level FlightAware ADS-B
06:54PM 46.6930 -123.9550 152° Southeast 298 343 16,300  Level FlightAware ADS-B
06:54PM 46.6893 -123.9528 161° South 278 320 16,300  Level FlightAware ADS-B
06:54PM 46.6803 -123.9480 163° South 272 313 16,300 -900 Level FlightAware ADS-B
06:54PM 46.6762 -123.9470 168° South 264 304 16,200 -720 Descending FlightAware ADS-B
06:54PM 46.6700 -123.9460 173° South 262 302 16,200 -780 Level FlightAware ADS-B
06:54PM 46.6741 -123.9464 177° South 259 298 16,100 -1,140 Descending FlightAware ADS-B
06:54PM 46.6570 -123.9450 181° South 254 292 16,000  Descending FlightAware ADS-B
06:54PM 46.6288 -123.9460 181° South 244 281 16,100  Climbing FlightAware ADS-B
06:55PM 46.6154 -123.9459 181° South 244 281 16,000 -660 Descending FlightAware ADS-B
06:55PM 46.6083 -123.9460 181° South 241 277 15,900 -2,040 Descending FlightAware ADS-B
06:55PM 46.6018 -123.9470 187° South 234 269 15,600 -2,400 Descending FlightAware ADS-B
06:55PM 46.5980 -123.9480 192° South 227 261 15,500 -2,580 Descending FlightAware ADS-B
06:55PM 46.5947 -123.9490 197° South 221 254 15,300 -3,000 Descending FlightAware ADS-B
06:55PM 46.5943 -123.9494 200° South 218 251 15,300 -2,040 Level FlightAware ADS-B
06:55PM 46.5916 -123.9510 202° Southwest 215 247 15,200 -2,580 Descending FlightAware ADS-B
06:55PM 46.5877 -123.9540 213° Southwest 203 234 15,000 -3,000 Descending FlightAware ADS-B
06:55PM 46.5856 -123.9570 221° Southwest 195 224 14,800 -3,000 Descending FlightAware ADS-B
06:55PM 46.5837 -123.9600 230° Southwest 187 215 14,700 -2,580 Descending FlightAware ADS-B
06:55PM 46.5821 -123.9640 239° Southwest 180 207 14,500 -3,000 Descending FlightAware ADS-B
06:55PM 46.5813 -123.9680 254° West 172 198 14,300 -2,580 Descending FlightAware ADS-B
06:55PM 46.5812 -123.9720 269° West 164 189 14,200 -2,040 Descending FlightAware ADS-B
06:55PM 46.5816 -123.9750 281° West 160 184 14,100 -2,580 Descending FlightAware ADS-B
06:56PM 46.5828 -123.9790 298° West 155 178 13,900 -2,280 Descending FlightAware ADS-B
06:56PM 46.5846 -123.9820 315° West 151 174 13,800 -1,740 Descending FlightAware ADS-B
06:56PM 46.5863 -123.9830 323° Northwest 150 173 13,700 -3,000 Descending FlightAware ADS-B
06:56PM 46.5894 -123.9850 338° Northwest 149 171 13,400 -3,780 Descending FlightAware ADS-B
06:56PM 46.5917 -123.9850 353° North 157 181 13,200 -5,160 Descending FlightAware ADS-B
06:56PM 46.5949 -123.9850 North 176 203 12,800 -8,040 Descending FlightAware ADS-B
06:56PM 46.5997 -123.9840 13° North 211 243 12,000 -8,100 Descending FlightAware ADS-B
06:56PM 46.6177 -123.9750 19° North 295 339 10,100 -3,480 Descending FlightAware ADS-B
06:56PM 46.6339 -123.9670 20° North 279 321 10,400 720 Climbing FlightAware ADS-B
06:57PM 46.6671 -123.9480 22° Northeast 264 304 10,600 2,040 Climbing FlightAware ADS-B
06:57PM 46.7002 -123.9280 24° Northeast 248 285 12,400 3,180 Climbing FlightAware ADS-B
06:58PM 46.7319 -123.9050 28° Northeast 259 298 13,900 2,340 Climbing FlightAware ADS-B
06:58PM 46.7502 -123.8910 25° Northeast 278 320 14,300 1,620 Climbing FlightAware ADS-B
06:58PM 46.7574 -123.8870 18° North 273 314 14,500 3,000 Climbing FlightAware ADS-B
06:58PM 46.7736 -123.8870 347° North 235 270 15,300 3,420 Climbing FlightAware ADS-B
06:59PM 46.7784 -123.8900 336° Northwest 219 252 15,600 3,000 Climbing FlightAware ADS-B
06:59PM 46.7849 -123.8980 312° West 201 231 16,000 2,100 Climbing FlightAware ADS-B
06:59PM 46.7872 -123.9030 301° West 198 228 16,100 360 Climbing FlightAware ADS-B
06:59PM 46.7709 -123.9540 225° Southwest 232 267 16,300 120 Climbing FlightAware ADS-B
07:00PM 46.7484 -123.9862 225° Southwest 227 261 16,300  Level FlightAware ADS-B
07:00PM 46.7459 -123.9900 225° Southwest 226 260 16,300  Level FlightAware ADS-B
07:01PM 46.7148 -124.0360 225° Southwest 225 259 16,300  Level FlightAware ADS-B
07:01PM 46.7118 -124.0410 232° Southwest 220 253 16,300  Level FlightAware ADS-B
07:01PM 46.7078 -124.0500 237° Southwest 216 249 16,300  Level FlightAware ADS-B
07:01PM 46.7026 -124.0640 244° Southwest 212 244 16,300  Level FlightAware ADS-B
07:02PM 46.6929 -124.1060 254° West 209 241 16,300  Level FlightAware ADS-B
07:02PM 46.6853 -124.1430 254° West 210 242 16,300  Level FlightAware ADS-B
07:02PM 46.6841 -124.1493 253° West 209 241 16,300  Level FlightAware ADS-B
07:03PM 46.6768 -124.1850 253° West 195 224 16,300  Level FlightAware ADS-B
07:03PM 46.6691 -124.2200 252° West 176 203 16,300  Level FlightAware ADS-B
07:03PM 46.6643 -124.2410 251° West 176 203 16,300 -300 Level FlightAware ADS-B
07:04PM 46.6631 -124.2450 249° West 177 204 16,200 -1,500 Descending FlightAware ADS-B
07:04PM 46.6617 -124.2500 243° Southwest 181 208 16,100 -2,040 Descending FlightAware ADS-B
07:04PM 46.6594 -124.2550 236° Southwest 189 217 15,900 -3,600 Descending FlightAware ADS-B
07:04PM 46.6555 -124.2600 222° Southwest 210 242 15,500 -3,540 Descending FlightAware ADS-B
07:04PM 46.6496 -124.2650 205° Southwest 237 273 15,200 -3,000 Descending FlightAware ADS-B
07:04PM 46.6458 -124.2670 195° South 253 291 15,000 -2,580 Descending FlightAware ADS-B
07:04PM 46.6406 -124.2670 184° South 268 308 14,900 -780 Descending FlightAware ADS-B
07:04PM 46.6352 -124.2660 173° South 279 321 14,900 1,500 Level FlightAware ADS-B
07:04PM 46.6305 -124.2640 162° South 283 326 15,100 3,000 Climbing FlightAware ADS-B
07:04PM 46.6259 -124.2610 151° Southeast 280 322 15,300 3,000 Climbing FlightAware ADS-B
07:04PM 46.6221 -124.2570 141° Southeast 274 315 15,500 1,320 Climbing FlightAware ADS-B
07:04PM 46.6127 -124.2360 113° Southeast 254 292 15,700 -1,500 Climbing FlightAware ADS-B
07:05PM 46.6098 -124.2190 102° East 254 292 14,900 -7,200 Descending FlightAware ADS-B
07:05PM 46.6080 -124.2000 97° East 331 381 13,300 -2,640 Descending FlightAware ADS-B
07:05PM 46.6030 -124.1270 96° East 351 404 13,100 -300 Descending FlightAware ADS-B
07:06PM 46.5997 -124.0870 97° East 349 402 13,100 240 Level FlightAware ADS-B
07:06PM 46.5989 -124.0720 93° East 345 397 13,200 1,080 Climbing FlightAware ADS-B
07:06PM 46.5990 -124.0630 88° East 342 394 13,300 1,320 Climbing FlightAware ADS-B
07:06PM 46.6000 -124.0520 80° East 337 388 13,400 1,500 Climbing FlightAware ADS-B
07:06PM 46.6012 -124.0440 75° East 332 382 13,500 2,220 Climbing FlightAware ADS-B
07:06PM 46.6036 -124.0350 69° East 326 375 13,700 2,220 Climbing FlightAware ADS-B
07:06PM 46.6060 -124.0290 63° Northeast 319 367 13,800 1,320 Climbing FlightAware ADS-B
07:06PM 46.6106 -124.0190 53° Northeast 304 350 13,900 1,620 Climbing FlightAware ADS-B
07:06PM 46.6164 -124.0110 42° Northeast 286 329 14,100 2,160 Climbing FlightAware ADS-B
07:06PM 46.6216 -124.0060 32° Northeast 269 310 14,300 2,160 Climbing FlightAware ADS-B
07:06PM 46.6277 -124.0030 20° North 247 284 14,500 1,620 Climbing FlightAware ADS-B
07:07PM 46.6325 -124.0010 11° North 231 266 14,600 1,440 Climbing FlightAware ADS-B
07:07PM 46.6526 -123.9980 North 215 247 15,100 1,500 Climbing FlightAware ADS-B
07:07PM 46.6759 -123.9950 North 219 252 15,700 1,560 Climbing FlightAware ADS-B
07:07PM 46.6822 -123.9960 357° North 211 243 15,900 1,500 Climbing FlightAware ADS-B
07:07PM 46.6875 -123.9970 343° North 195 224 16,000 1,320 Climbing FlightAware ADS-B
07:08PM 46.6904 -124.0000 332° Northwest 186 214 16,100 1,500 Climbing FlightAware ADS-B
07:08PM 46.6930 -124.0030 320° Northwest 179 206 16,200 1,320 Climbing FlightAware ADS-B
07:08PM 46.6955 -124.0070 304° West 170 196 16,300 660 Climbing FlightAware ADS-B
07:08PM 46.6966 -124.0110 295° West 166 191 16,300  Level FlightAware ADS-B
07:08PM 46.6979 -124.0170 287° West 166 191 16,300  Level FlightAware ADS-B
07:09PM 46.7053 -124.0750 280° West 173 199 16,300 -120 Level FlightAware ADS-B
07:09PM 46.7091 -124.1060 279° West 167 192 16,200 -360 Descending FlightAware ADS-B
07:09PM 46.7091 -124.1130 266° West 169 194 16,100 -600 Descending FlightAware ADS-B
07:09PM 46.7084 -124.1170 253° West 174 200 16,100  Level FlightAware ADS-B
07:09PM 46.7064 -124.1230 240° Southwest 182 209 16,100  Level FlightAware ADS-B
07:09PM 46.7040 -124.1260 227° Southwest 194 223 16,100  Level FlightAware ADS-B
07:10PM 46.7002 -124.1300 211° Southwest 211 243 16,100  Level FlightAware ADS-B
07:10PM 46.6942 -124.1330 195° South 231 266 16,100 600 Level FlightAware ADS-B
07:10PM 46.6902 -124.1330 184° South 245 282 16,200 1,800 Climbing FlightAware ADS-B
07:10PM 46.6830 -124.1320 170° South 258 297 16,400 2,700 Climbing FlightAware ADS-B
07:10PM 46.6772 -124.1280 156° South 262 302 16,700 3,600 Climbing FlightAware ADS-B
07:10PM 46.6687 -124.1170 129° Southeast 250 288 17,300 1,560 Climbing FlightAware ADS-B
07:10PM 46.6656 -124.1102 124° Southeast 260 299 17,100 -4,800 Descending FlightAware ADS-B
07:11PM 46.6451 -124.0660 125° Southeast 356 410 14,900 -4,500 Descending FlightAware ADS-B
07:11PM 46.6376 -124.0530 132° Southeast 354 407 14,700 -1,020 Descending FlightAware ADS-B
07:11PM 46.6318 -124.0450 141° Southeast 343 395 14,700  Level FlightAware ADS-B
07:11PM 46.6256 -124.0400 151° Southeast 326 375 14,700 -600 Level FlightAware ADS-B
07:11PM 46.6169 -124.0350 163° South 307 353 14,600 -1,140 Descending FlightAware ADS-B
07:11PM 46.6105 -124.0340 174° South 289 333 14,500 -600 Descending FlightAware ADS-B
07:11PM 46.6034 -124.0340 186° South 272 313 14,500 -600 Level FlightAware ADS-B
07:11PM 46.5979 -124.0370 198° South 253 291 14,400 -1,200 Descending FlightAware ADS-B
07:11PM 46.5930 -124.0400 210° Southwest 238 274 14,300 -1,140 Descending FlightAware ADS-B
07:11PM 46.5887 -124.0460 221° Southwest 226 260 14,200 -1,200 Descending FlightAware ADS-B
07:11PM 46.5864 -124.0510 238° Southwest 213 245 14,100 -1,740 Descending FlightAware ADS-B
07:11PM 46.5852 -124.0550 247° West 207 238 14,000 -2,280 Descending FlightAware ADS-B
07:12PM 46.5845 -124.0610 264° West 202 232 13,800 -2,040 Descending FlightAware ADS-B
07:12PM 46.5848 -124.0670 278° West 199 229 13,700 -900 Descending FlightAware ADS-B
07:12PM 46.5857 -124.0710 287° West 197 227 13,700  Level FlightAware ADS-B
07:12PM 46.5876 -124.0780 295° West 194 223 13,700  Level FlightAware ADS-B
07:12PM 46.5893 -124.0820 301° West 193 222 13,700  Level FlightAware ADS-B
07:12PM 46.5914 -124.0860 308° West 193 222 13,700  Level FlightAware ADS-B
07:12PM 46.5945 -124.0910 316° Northwest 194 223 13,700  Level FlightAware ADS-B
07:12PM 46.6053 -124.1030 324° Northwest 195 224 13,700  Level FlightAware ADS-B
07:13PM 46.6269 -124.1220 331° Northwest 193 222 13,700  Level FlightAware ADS-B
07:13PM 46.6370 -124.1310 323° Northwest 189 217 13,700 -600 Level FlightAware ADS-B
07:13PM 46.6418 -124.1400 307° West 191 220 13,500 -1,320 Descending FlightAware ADS-B
07:13PM 46.6431 -124.1460 285° West 194 223 13,400 600 Descending FlightAware ADS-B
07:13PM 46.6392 -124.1650 261° West 202 232 13,700 1,860 Climbing FlightAware ADS-B
07:13PM 46.6362 -124.1680 215° Southwest 202 232 14,000 5,220 Climbing FlightAware ADS-B
07:14PM 46.6327 -124.1700 200° South 195 224 14,400 6,000 Climbing FlightAware ADS-B
07:14PM 46.6265 -124.1710 190° South 192 221 15,100 4,500 Climbing FlightAware ADS-B
07:14PM 46.6223 -124.1700 170° South 194 223 15,300 2,220 Climbing FlightAware ADS-B
07:14PM 46.6198 -124.1680 159° South 201 231 15,400  Climbing FlightAware ADS-B
07:14PM 46.6146 -124.1640 148° Southeast 211 243 15,300 -5,520 Descending FlightAware ADS-B
07:14PM 46.5987 -124.1460 142° Southeast 311 358 13,300 -2,400 Descending FlightAware ADS-B
07:15PM 46.5609 -124.1030 142° Southeast 333 383 13,400 120 Climbing FlightAware ADS-B
07:15PM 46.5404 -124.0800 142° Southeast 337 388 13,400  Level FlightAware ADS-B
07:15PM 46.5354 -124.0730 137° Southeast 340 391 13,400  Level FlightAware ADS-B
07:15PM 46.5291 -124.0630 129° Southeast 346 398 13,400  Level FlightAware ADS-B
07:15PM 46.5249 -124.0540 121° Southeast 351 404 13,400  Level FlightAware ADS-B
07:15PM 46.5221 -124.0450 113° Southeast 353 406 13,400  Level FlightAware ADS-B
07:15PM 46.5245 -124.0530 108° East 355 409 13,400  Level FlightAware ADS-B
07:15PM 46.5198 -124.0350 106° East 355 409 13,400 1,200 Level FlightAware ADS-B
07:15PM 46.5189 -124.0270 98° East 355 409 13,500 840 Climbing FlightAware ADS-B
07:15PM 46.5186 -124.0190 92° East 354 407 13,500  Level FlightAware ADS-B
07:16PM 46.5190 -124.0100 84° East 352 405 13,500  Level FlightAware ADS-B
07:16PM 46.5202 -124.0020 76° East 349 402 13,500  Level FlightAware ADS-B
07:16PM 46.5218 -123.9950 70° East 345 397 13,500  Level FlightAware ADS-B
07:16PM 46.5240 -123.9880 64° Northeast 341 392 13,500  Level FlightAware ADS-B
07:16PM 46.5271 -123.9810 56° Northeast 334 384 13,500  Level FlightAware ADS-B
07:16PM 46.5312 -123.9730 49° Northeast 329 379 13,500  Level FlightAware ADS-B
07:16PM 46.5353 -123.9680 41° Northeast 322 371 13,500  Level FlightAware ADS-B
07:16PM 46.5403 -123.9630 33° Northeast 313 360 13,500  Level FlightAware ADS-B
07:16PM 46.5441 -123.9600 26° Northeast 305 351 13,500  Level FlightAware ADS-B
07:16PM 46.5500 -123.9570 18° North 294 338 13,500 -900 Level FlightAware ADS-B
07:16PM 46.5539 -123.9560 11° North 285 328 13,400 -1,020 Descending FlightAware ADS-B
07:16PM 46.5580 -123.9550 North 278 320 13,400  Level FlightAware ADS-B
07:16PM 46.5630 -123.9550 354° North 266 306 13,400  Level FlightAware ADS-B
07:16PM 46.5675 -123.9570 347° North 261 300 13,400  Level FlightAware ADS-B
07:16PM 46.5715 -123.9590 337° Northwest 256 295 13,400 -720 Level FlightAware ADS-B
07:16PM 46.5769 -123.9640 325° Northwest 250 288 13,300 -1,380 Descending FlightAware ADS-B
07:17PM 46.5797 -123.9680 315° West 245 282 13,200 -1,380 Descending FlightAware ADS-B
07:17PM 46.5830 -123.9740 305° West 238 274 13,100 -1,500 Descending FlightAware ADS-B
07:17PM 46.5849 -123.9800 296° West 234 269 13,000 -1,740 Descending FlightAware ADS-B
07:17PM 46.5863 -123.9860 288° West 231 266 12,900 -2,040 Descending FlightAware ADS-B
07:17PM 46.5871 -123.9930 278° West 228 262 12,700 -2,280 Descending FlightAware ADS-B
07:17PM 46.5872 -123.9980 271° West 227 261 12,600 -1,740 Descending FlightAware ADS-B
07:17PM 46.5870 -124.0040 266° West 227 261 12,500  Descending FlightAware ADS-B
07:17PM 46.5849 -124.0280 262° West 210 242 12,600 -180 Climbing FlightAware ADS-B
07:18PM 46.5810 -124.0670 263° West 187 215 12,400 -240 Descending FlightAware ADS-B
07:18PM 46.5783 -124.1030 264° West 181 208 12,400 -120 Level FlightAware ADS-B
07:19PM 46.5762 -124.1410 266° West 184 212 12,300 -180 Descending FlightAware ADS-B
07:19PM 46.5762 -124.1480 272° West 185 213 12,300  Level FlightAware ADS-B
07:19PM 46.5769 -124.1530 283° West 189 217 12,300 -600 Level FlightAware ADS-B
07:19PM 46.5798 -124.1620 299° West 197 227 12,200 -1,020 Descending FlightAware ADS-B
07:19PM 46.5829 -124.1670 315° West 214 246 12,100 -1,020 Descending FlightAware ADS-B
07:19PM 46.5894 -124.1720 334° Northwest 237 273 12,000 3,360 Descending FlightAware ADS-B
07:20PM 46.6187 -124.1510 340° North 243 280 14,400 3,600 Climbing FlightAware ADS-B
07:20PM 46.6197 -124.1460 75° East 203 234 14,300 -5,340 Descending FlightAware ADS-B
07:20PM 46.6213 -124.1230 86° East 256 295 12,800 -2,460 Descending FlightAware ADS-B
07:21PM 46.6238 -124.0540 88° East 349 402 12,500 -420 Descending FlightAware ADS-B
07:21PM 46.6249 -123.9830 89° East 331 381 12,400 -120 Descending FlightAware ADS-B
07:22PM 46.6249 -123.9180 91° East 318 366 12,400 120 Level FlightAware ADS-B
07:22PM 46.6246 -123.8940 90° East 316 364 12,500 360 Climbing FlightAware ADS-B
07:22PM 46.6248 -123.8860 86° East 316 364 12,500  Level FlightAware ADS-B
07:22PM 46.6256 -123.8780 81° East 313 360 12,500 -600 Level FlightAware ADS-B
07:22PM 46.6277 -123.8650 73° East 307 353 12,400 -600 Descending FlightAware ADS-B
07:22PM 46.6298 -123.8580 67° East 304 350 12,400  Level FlightAware ADS-B
07:22PM 46.6323 -123.8510 60° Northeast 300 345 12,400  Level FlightAware ADS-B
07:22PM 46.6348 -123.8460 55° Northeast 297 342 12,400  Level FlightAware ADS-B
07:22PM 46.6383 -123.8400 48° Northeast 294 338 12,400  Level FlightAware ADS-B
07:22PM 46.6424 -123.8340 41° Northeast 288 331 12,400  Level FlightAware ADS-B
07:22PM 46.6467 -123.8300 34° Northeast 283 326 12,400  Level FlightAware ADS-B
07:23PM 46.6542 -123.8240 26° Northeast 277 319 12,400  Level FlightAware ADS-B
07:23PM 46.6829 -123.8060 24° Northeast 274 315 12,400  Level FlightAware ADS-B
07:23PM 46.6892 -123.8020 19° North 270 311 12,400  Level FlightAware ADS-B
07:23PM 46.6930 -123.8000 15° North 268 308 12,400 720 Level FlightAware ADS-B
07:23PM 46.6985 -123.7990 North 262 302 12,500 840 Climbing FlightAware ADS-B
07:23PM 46.7023 -123.7990 358° North 256 295 12,500 840 Level FlightAware ADS-B
07:23PM 46.7069 -123.8000 349° North 248 285 12,600 660 Climbing FlightAware ADS-B
07:23PM 46.7114 -123.8020 340° North 241 277 12,600 660 Level FlightAware ADS-B
07:23PM 46.7156 -123.8060 329° Northwest 234 269 12,700 1,680 Climbing FlightAware ADS-B
07:23PM 46.7181 -123.8090 322° Northwest 229 264 12,800 960 Climbing FlightAware ADS-B
07:24PM 46.7205 -123.8120 311° West 223 257 12,800 960 Level FlightAware ADS-B
07:24PM 46.7222 -123.8160 303° West 219 252 12,900 1,680 Climbing FlightAware ADS-B
07:24PM 46.7236 -123.8200 294° West 215 247 13,000 840 Climbing FlightAware ADS-B
07:24PM 46.7246 -123.8240 286° West 213 245 13,000 840 Level FlightAware ADS-B
07:24PM 46.7251 -123.8300 275° West 211 243 13,100 1,980 Climbing FlightAware ADS-B
07:24PM 46.7245 -123.8380 261° West 209 241 13,300 2,220 Climbing FlightAware ADS-B
07:24PM 46.7237 -123.8420 251° West 211 243 13,400 1,980 Climbing FlightAware ADS-B
07:24PM 46.7225 -123.8460 246° West 212 244 13,500 1,680 Climbing FlightAware ADS-B
07:24PM 46.7173 -123.8590 237° Southwest 216 249 13,800 1,560 Climbing FlightAware ADS-B
07:25PM 46.6990 -123.8950 232° Southwest 221 254 14,600 1,680 Climbing FlightAware ADS-B
07:25PM 46.6819 -123.9260 230° Southwest 219 252 15,400 1,680 Climbing FlightAware ADS-B
07:26PM 46.6634 -123.9590 232° Southwest 219 252 16,200 1,500 Climbing FlightAware ADS-B
07:26PM 46.6599 -123.9662 233° Southwest 217 250 16,300 600 Climbing FlightAware ADS-B
07:26PM 46.6577 -123.9700 233° Southwest 216 249 16,300  Level FlightAware ADS-B
07:26PM 46.6539 -123.9790 239° Southwest 211 243 16,300  Level FlightAware ADS-B
07:26PM 46.6522 -123.9850 249° West 204 235 16,300  Level FlightAware ADS-B
07:26PM 46.6515 -123.9900 260° West 200 230 16,300  Level FlightAware ADS-B
07:26PM 46.6516 -123.9960 274° West 193 222 16,300  Level FlightAware ADS-B
07:26PM 46.6522 -124.0000 283° West 191 220 16,300  Level FlightAware ADS-B
07:26PM 46.6534 -124.0040 293° West 189 217 16,300  Level FlightAware ADS-B
07:26PM 46.6545 -124.0080 299° West 188 216 16,300  Level FlightAware ADS-B
07:26PM 46.6584 -124.0160 307° West 185 213 16,300  Level FlightAware ADS-B
07:27PM 46.6644 -124.0260 313° West 180 207 16,300  Level FlightAware ADS-B
07:27PM 46.6819 -124.0510 315° West 176 203 16,300  Level FlightAware ADS-B
07:28PM 46.6989 -124.0770 314° West 175 201 16,300  Level FlightAware ADS-B
07:28PM 46.7087 -124.0910 314° West 175 201 16,300  Level FlightAware ADS-B
07:28PM 46.7241 -124.1130 317° Northwest 176 203 16,300  Level FlightAware ADS-B
07:29PM 46.7420 -124.1370 317° Northwest 177 204 16,300  Level FlightAware ADS-B
07:29PM 46.7598 -124.1620 317° Northwest 176 203 16,300  Level FlightAware ADS-B
07:30PM 46.7775 -124.1860 317° Northwest 175 201 16,300  Level FlightAware ADS-B
07:30PM 46.7818 -124.1920 314° West 174 200 16,300  Level FlightAware ADS-B
07:30PM 46.7853 -124.1980 309° West 171 197 16,300  Level FlightAware ADS-B
07:30PM 46.7887 -124.2050 302° West 168 193 16,300  Level FlightAware ADS-B
07:30PM 46.7903 -124.2090 297° West 166 191 16,300  Level FlightAware ADS-B
07:30PM 46.7913 -124.2130 291° West 164 189 16,300  Level FlightAware ADS-B
07:30PM 46.7920 -124.2170 282° West 163 188 16,300  Level FlightAware ADS-B
07:30PM 46.7924 -124.2250 272° West 164 189 16,300  Level FlightAware ADS-B
07:31PM 46.7922 -124.2330 267° West 165 190 16,300  Level FlightAware ADS-B
07:31PM 46.7911 -124.2510 263° West 166 191 16,300  Level FlightAware ADS-B
07:31PM 46.7883 -124.2840 263° West 165 190 16,300  Level FlightAware ADS-B
07:32PM 46.7856 -124.3180 263° West 165 190 16,300  Level FlightAware ADS-B
07:32PM 46.7831 -124.3510 263° West 165 190 16,300  Level FlightAware ADS-B
07:33PM 46.7807 -124.3810 263° West 165 190 16,300  Level FlightAware ADS-B
07:33PM 46.7800 -124.3880 260° West 167 192 16,300  Level FlightAware ADS-B
07:33PM 46.7790 -124.3930 252° West 169 194 16,300  Level FlightAware ADS-B
07:33PM 46.7758 -124.4030 243° Southwest 174 200 16,300  Level FlightAware ADS-B
07:34PM 46.7629 -124.4340 237° Southwest 177 204 16,300  Level FlightAware ADS-B
07:34PM 46.7484 -124.4670 237° Southwest 174 200 16,300  Level FlightAware ADS-B
07:35PM 46.7349 -124.4970 237° Southwest 172 198 16,300 180 Level FlightAware ADS-B
07:35PM 46.7221 -124.5260 237° Southwest 157 181 16,500 -240 Climbing FlightAware ADS-B
07:36PM 46.7114 -124.5510 240° Southwest 166 191 16,100 -660 Descending FlightAware ADS-B
07:36PM 46.7000 -124.5800 241° Southwest 167 192 15,900 -900 Descending FlightAware ADS-B
07:37PM 46.6895 -124.6080 240° Southwest 133 153 15,200 -1,980 Descending FlightAware ADS-B
07:37PM 46.6844 -124.6200 237° Southwest 120 138 14,300 -3,300 Descending FlightAware ADS-B
07:38PM 46.6593 -124.6890 243° Southwest 228 262 11,200 -3,180 Descending FlightAware ADS-B
07:38PM 46.6571 -124.6930 232° Southwest 225 259 11,200 -420 Level FlightAware ADS-B
07:38PM 46.6477 -124.7030 209° Southwest 234 269 11,100 -420 Descending FlightAware ADS-B
07:38PM 46.6434 -124.7040 194° South 242 278 11,100 -600 Level FlightAware ADS-B
07:38PM 46.6362 -124.7050 179° South 254 292 11,000 -600 Descending FlightAware ADS-B
07:39PM 46.6197 -124.6960 147° Southeast 279 321 10,900 -540 Descending FlightAware ADS-B
07:39PM 46.6119 -124.6840 131° Southeast 288 331 10,800 -720 Descending FlightAware ADS-B
07:39PM 46.6042 -124.6540 105° East 303 349 10,600 120 Descending FlightAware ADS-B
07:40PM 46.5930 -124.5930 105° East 304 350 10,900 840 Climbing FlightAware ADS-B
07:40PM 46.5823 -124.5340 105° East 305 351 11,500 1,860 Climbing FlightAware ADS-B
07:40PM 46.5785 -124.5120 103° East 301 346 12,200 3,360 Climbing FlightAware ADS-B
07:40PM 46.5773 -124.5020 99° East 303 349 12,400 2,280 Climbing FlightAware ADS-B
07:40PM 46.5767 -124.4850 90° East 309 356 12,700 1,740 Climbing FlightAware ADS-B
07:41PM 46.5774 -124.4660 85° East 315 362 12,900 1,260 Climbing FlightAware ADS-B
07:41PM 46.5784 -124.4560 81° East 317 365 13,000 1,860 Climbing FlightAware ADS-B
07:41PM 46.5893 -124.3920 75° East 331 381 14,000 2,340 Climbing FlightAware ADS-B
07:42PM 46.6003 -124.3260 77° East 326 375 15,400 1,740 Climbing FlightAware ADS-B
07:42PM 46.6151 -124.2410 76° East 319 367 16,100 720 Climbing FlightAware ADS-B
07:43PM 46.6256 -124.1790 76° East 307 353 16,300 -720 Climbing FlightAware ADS-B
07:43PM 46.6360 -124.1180 76° East 302 348 15,400 -1,620 Descending FlightAware ADS-B
07:43PM 46.6367 -124.1130 77° East 297 342 15,400 -1,200 Level FlightAware ADS-B
07:44PM 46.6443 -124.0630 78° East 254 292 14,800 -3,000 Descending FlightAware ADS-B
07:44PM 46.6547 -124.0040 73° East 322 371 12,500 -2,160 Descending FlightAware ADS-B
07:45PM 46.6682 -123.9420 72° East 326 375 12,600 900 Climbing FlightAware ADS-B
07:45PM 46.6810 -123.8830 73° East 321 369 13,400 1,620 Climbing FlightAware ADS-B
07:46PM 46.6925 -123.8260 72° East 343 395 14,100 1,320 Climbing FlightAware ADS-B
07:46PM 46.7025 -123.7860 68° East 364 419 14,400 960 Climbing FlightAware ADS-B
07:47PM 46.7243 -123.7150 66° East 394 453 14,900 1,200 Climbing FlightAware ADS-B
07:47PM 46.7479 -123.6390 66° East 419 482 15,600 960 Climbing FlightAware ADS-B
07:48PM 46.7719 -123.5610 66° East 422 486 15,900 240 Climbing FlightAware ADS-B
07:48PM 46.7953 -123.4830 66° East 419 482 15,900  Level FlightAware ADS-B
07:49PM 46.8192 -123.4050 66° East 416 479 15,900  Level FlightAware ADS-B
07:49PM 46.8428 -123.3280 66° East 416 479 15,900  Level FlightAware ADS-B
07:50PM 46.8666 -123.2500 66° East 417 480 15,900  Level FlightAware ADS-B
07:50PM 46.8902 -123.1720 66° East 417 480 15,900  Level FlightAware ADS-B
07:51PM 46.9139 -123.0940 66° East 419 482 15,900  Level FlightAware ADS-B
07:51PM 46.9386 -123.0120 66° East 448 516 15,900 -300 Level FlightAware ADS-B
07:51PM 46.9544 -122.9610 65° Northeast 448 516 15,700 -720 Descending FlightAware ADS-B
07:52PM 46.9606 -122.9440 61° Northeast 444 511 15,600 -1,200 Descending FlightAware ADS-B
07:52PM 46.9698 -122.9220 57° Northeast 437 503 15,400 -1,500 Descending FlightAware ADS-B
07:52PM 46.9790 -122.9030 53° Northeast 430 495 15,200 -1,800 Descending FlightAware ADS-B
07:52PM 46.9935 -122.8780 48° Northeast 423 487 14,800 -1,920 Descending FlightAware ADS-B
07:52PM 47.0074 -122.8570 44° Northeast 417 480 14,500 -1,800 Descending FlightAware ADS-B
07:53PM 47.0504 -122.8020 41° Northeast 400 460 13,600 -1,740 Descending FlightAware ADS-B
07:53PM 47.0920 -122.7490 41° Northeast 390 449 12,800 -1,140 Descending FlightAware ADS-B
07:54PM 47.1315 -122.6980 41° Northeast 366 421 12,500 -600 Descending FlightAware ADS-B
07:54PM 47.1579 -122.6640 40° Northeast 348 400 12,300 -660 Descending FlightAware ADS-B
07:54PM 47.1662 -122.6550 34° Northeast 339 390 12,200 -600 Descending FlightAware ADS-B
07:54PM 47.1702 -122.6510 30° Northeast 333 383 12,200 -780 Level FlightAware ADS-B
07:54PM 47.1774 -122.6470 22° Northeast 325 374 12,100 -600 Descending FlightAware ADS-B
07:54PM 47.1856 -122.6430 12° North 314 361 12,100 -720 Level FlightAware ADS-B
07:55PM 47.2285 -122.6380 North 294 338 11,700 -1,020 Descending FlightAware ADS-B
07:55PM 47.2693 -122.6330 North 287 330 11,100 -1,980 Descending FlightAware ADS-B
07:56PM 47.2973 -122.6310 North 284 327 10,000 -2,940 Descending FlightAware ADS-B
07:56PM 47.3178 -122.6290 North 278 320 9,300 -2,760 Descending FlightAware ADS-B
07:56PM 47.3370 -122.6270 North 274 315 8,600 -2,700 Descending FlightAware ADS-B
07:57PM 47.3545 -122.6260 North 269 310 8,000 -2,280 Descending FlightAware ADS-B
07:57PM 47.3672 -122.6260 North 269 310 7,700 -1,620 Descending FlightAware ADS-B
07:57PM 47.3863 -122.6250 North 268 308 7,300 -1,320 Descending FlightAware ADS-B
07:57PM 47.3903 -122.6250 360° North 268 308 7,300 -1,320 Level FlightAware ADS-B
07:57PM 47.4036 -122.6260 360° North 267 307 7,000 -960 Descending FlightAware ADS-B
07:57PM 47.4223 -122.6260 360° North 267 307 6,900 -240 Descending FlightAware ADS-B
07:58PM 47.4412 -122.6260 360° North 265 305 6,900  Level FlightAware ADS-B
07:58PM 47.4600 -122.6260 359° North 267 307 6,900  Level FlightAware ADS-B
07:58PM 47.4794 -122.6270 359° North 266 306 6,900  Level FlightAware ADS-B
07:58PM 47.4861 -122.6270 North 267 307 6,900 -540 Level FlightAware ADS-B
07:58PM 47.4935 -122.6260 North 265 305 6,800 -1,380 Descending FlightAware ADS-B
07:58PM 47.4973 -122.6260 North 263 303 6,700 -3,000 Descending FlightAware ADS-B
07:59PM 47.5016 -122.6240 12° North 264 304 6,500 -3,360 Descending FlightAware ADS-B
07:59PM 47.5078 -122.6220 15° North 266 306 6,200 -3,000 Descending FlightAware ADS-B
07:59PM 47.5149 -122.6190 17° North 268 308 5,900 -2,880 Descending FlightAware ADS-B
07:59PM 47.5302 -122.6110 20° North 269 310 5,300 -3,180 Descending FlightAware ADS-B
07:59PM 47.5583 -122.5960 19° North 276 318 4,000 -3,000 Descending FlightAware ADS-B
08:00PM 47.5787 -122.5860 19° North 276 318 3,300 -2,160 Descending FlightAware ADS-B
08:00PM 47.5887 -122.5820 17° North 276 318 3,100 -1,200 Descending FlightAware ADS-B
08:00PM 47.6094 -122.5760 15° North 274 315 2,800 -660 Descending FlightAware ADS-B
08:00PM 47.6329 -122.5710 North 257 296 2,700 -360 Descending FlightAware ADS-B
08:01PM 47.6523 -122.5680 North 239 275 2,600 -420 Descending FlightAware ADS-B
08:01PM 47.6668 -122.5630 10° North 234 269 2,500 -720 Descending FlightAware ADS-B
08:01PM 47.6711 -122.5600 30° Northeast 227 261 2,400 -480 Descending FlightAware ADS-B
08:01PM 47.6773 -122.5510 37° Northeast 224 258 2,400 -660 Level FlightAware ADS-B
08:01PM 47.6891 -122.5270 55° Northeast 207 238 2,100 -540 Descending FlightAware ADS-B
08:02PM 47.6964 -122.5110 57° Northeast 195 224 2,100  Level FlightAware ADS-B
08:02PM 47.6991 -122.5040 59° Northeast 188 216 2,100  Level FlightAware ADS-B
08:02PM 47.7021 -122.4890 87° East 182 209 2,100  Level FlightAware ADS-B
08:02PM 47.7012 -122.4810 102° East 183 211 2,100  Level FlightAware ADS-B
08:02PM 47.6936 -122.4580 115° Southeast 186 214 2,100  Level FlightAware ADS-B
08:03PM 47.6705 -122.4210 118° Southeast 186 214 2,100  Level FlightAware ADS-B
08:03PM 47.6655 -122.4170 151° Southeast 184 212 2,100  Level FlightAware ADS-B
08:04PM 47.6531 -122.4070 150° Southeast 180 207 2,100  Level FlightAware ADS-B
08:04PM 47.6417 -122.3970 150° Southeast 173 199 2,100 -240 Level FlightAware ADS-B
08:04PM 47.6318 -122.3890 150° Southeast 171 197 2,000 -600 Descending FlightAware ADS-B
08:04PM 47.6212 -122.3800 151° Southeast 161 185 1,800 -900 Descending FlightAware ADS-B
08:05PM 47.6093 -122.3700 151° Southeast 154 177 1,500 -960 Descending FlightAware ADS-B
08:05PM 47.6014 -122.3630 150° Southeast 155 178 1,300 -780 Descending FlightAware ADS-B
08:06PM 47.5603 -122.3300 150° Southeast 149 171 500 -780 Descending Seattle Center
08:06PM 47.5500 -122.3197 146° Southeast 150 173 200 11,460 Descending Seattle Center
08:07PM 47.5203 -122.2947 150° Southeast 150 173 16,000 15,540 Climbing Seattle Center